sensor_id;sensor_type;location;lat;lon;timestamp;temperature;humidity
60293;DHT22;52402;52.670;6.750;2022-12-07T00:02:22;3.60;99.90
60293;DHT22;52402;52.670;6.750;2022-12-07T00:04:49;3.60;99.90
60293;DHT22;52402;52.670;6.750;2022-12-07T00:07:14;3.60;99.90
60293;DHT22;52402;52.670;6.750;2022-12-07T00:09:40;3.60;99.90
60293;DHT22;52402;52.670;6.750;2022-12-07T00:12:07;3.50;99.90
60293;DHT22;52402;52.670;6.750;2022-12-07T00:14:33;3.50;99.90
60293;DHT22;52402;52.670;6.750;2022-12-07T00:16:59;3.50;99.90
60293;DHT22;52402;52.670;6.750;2022-12-07T00:19:24;3.40;99.90
60293;DHT22;52402;52.670;6.750;2022-12-07T00:21:50;3.40;99.90
60293;DHT22;52402;52.670;6.750;2022-12-07T00:24:16;3.40;99.90
60293;DHT22;52402;52.670;6.750;2022-12-07T00:26:42;3.40;99.90
60293;DHT22;52402;52.670;6.750;2022-12-07T00:29:19;3.30;99.90
60293;DHT22;52402;52.670;6.750;2022-12-07T00:31:45;3.40;99.90
60293;DHT22;52402;52.670;6.750;2022-12-07T00:34:14;3.30;99.90
60293;DHT22;52402;52.670;6.750;2022-12-07T00:36:41;3.30;99.90
60293;DHT22;52402;52.670;6.750;2022-12-07T00:39:06;3.30;99.90
60293;DHT22;52402;52.670;6.750;2022-12-07T00:41:32;3.30;99.90
60293;DHT22;52402;52.670;6.750;2022-12-07T00:43:57;3.30;99.90
60293;DHT22;52402;52.670;6.750;2022-12-07T00:46:24;3.20;99.90
60293;DHT22;52402;52.670;6.750;2022-12-07T00:48:50;3.20;99.90
60293;DHT22;52402;52.670;6.750;2022-12-07T00:51:19;3.20;99.90
60293;DHT22;52402;52.670;6.750;2022-12-07T00:53:45;3.20;99.90
60293;DHT22;52402;52.670;6.750;2022-12-07T00:56:16;3.20;99.90
60293;DHT22;52402;52.670;6.750;2022-12-07T00:58:41;3.20;99.90
60293;DHT22;52402;52.670;6.750;2022-12-07T01:01:08;3.10;99.90
60293;DHT22;52402;52.670;6.750;2022-12-07T01:03:35;3.10;99.90
60293;DHT22;52402;52.670;6.750;2022-12-07T01:06:01;3.20;99.90
60293;DHT22;52402;52.670;6.750;2022-12-07T01:08:27;3.20;99.90
60293;DHT22;52402;52.670;6.750;2022-12-07T01:11:02;3.20;99.90
60293;DHT22;52402;52.670;6.750;2022-12-07T01:13:29;3.20;99.90
60293;DHT22;52402;52.670;6.750;2022-12-07T01:15:58;3.20;99.90
60293;DHT22;52402;52.670;6.750;2022-12-07T01:18:28;3.20;99.90
60293;DHT22;52402;52.670;6.750;2022-12-07T01:21:15;3.20;99.90
60293;DHT22;52402;52.670;6.750;2022-12-07T01:23:41;3.20;99.90
60293;DHT22;52402;52.670;6.750;2022-12-07T01:26:10;3.20;99.90
60293;DHT22;52402;52.670;6.750;2022-12-07T01:28:37;3.20;99.90
60293;DHT22;52402;52.670;6.750;2022-12-07T01:31:05;3.20;99.90
60293;DHT22;52402;52.670;6.750;2022-12-07T01:33:33;3.20;99.90
60293;DHT22;52402;52.670;6.750;2022-12-07T01:38:37;3.30;99.90
60293;DHT22;52402;52.670;6.750;2022-12-07T01:41:03;3.30;99.90
60293;DHT22;52402;52.670;6.750;2022-12-07T01:43:30;3.20;99.90
60293;DHT22;52402;52.670;6.750;2022-12-07T01:45:56;3.30;99.90
60293;DHT22;52402;52.670;6.750;2022-12-07T01:48:26;3.30;99.90
60293;DHT22;52402;52.670;6.750;2022-12-07T01:50:54;3.30;99.90
60293;DHT22;52402;52.670;6.750;2022-12-07T01:53:24;3.30;99.90
60293;DHT22;52402;52.670;6.750;2022-12-07T01:55:52;3.30;99.90
60293;DHT22;52402;52.670;6.750;2022-12-07T01:58:18;3.20;99.90
60293;DHT22;52402;52.670;6.750;2022-12-07T02:00:45;3.30;99.90
60293;DHT22;52402;52.670;6.750;2022-12-07T02:03:23;3.30;99.90
60293;DHT22;52402;52.670;6.750;2022-12-07T02:05:50;3.30;99.90
60293;DHT22;52402;52.670;6.750;2022-12-07T02:08:17;3.30;99.90
60293;DHT22;52402;52.670;6.750;2022-12-07T02:10:43;3.30;99.90
60293;DHT22;52402;52.670;6.750;2022-12-07T02:13:28;3.30;99.90
60293;DHT22;52402;52.670;6.750;2022-12-07T02:19:18;3.30;99.90
60293;DHT22;52402;52.670;6.750;2022-12-07T02:29:39;3.40;99.90
60293;DHT22;52402;52.670;6.750;2022-12-07T02:32:28;3.40;99.90
60293;DHT22;52402;52.670;6.750;2022-12-07T02:35:11;3.40;99.90
60293;DHT22;52402;52.670;6.750;2022-12-07T02:38:02;3.40;99.90
60293;DHT22;52402;52.670;6.750;2022-12-07T02:40:36;3.40;99.90
60293;DHT22;52402;52.670;6.750;2022-12-07T02:43:08;3.40;99.90
60293;DHT22;52402;52.670;6.750;2022-12-07T02:45:36;3.30;99.90
60293;DHT22;52402;52.670;6.750;2022-12-07T02:48:04;3.30;99.90
60293;DHT22;52402;52.670;6.750;2022-12-07T02:50:31;3.30;99.90
60293;DHT22;52402;52.670;6.750;2022-12-07T02:52:57;3.20;99.90
60293;DHT22;52402;52.670;6.750;2022-12-07T02:55:28;3.20;99.90
60293;DHT22;52402;52.670;6.750;2022-12-07T03:00:27;3.10;99.90
60293;DHT22;52402;52.670;6.750;2022-12-07T03:03:11;3.00;99.90
60293;DHT22;52402;52.670;6.750;2022-12-07T03:06:08;3.00;99.90
60293;DHT22;52402;52.670;6.750;2022-12-07T03:11:13;2.90;99.90
60293;DHT22;52402;52.670;6.750;2022-12-07T03:14:16;2.90;99.90
60293;DHT22;52402;52.670;6.750;2022-12-07T03:16:40;2.90;99.90
60293;DHT22;52402;52.670;6.750;2022-12-07T03:19:14;2.90;99.90
60293;DHT22;52402;52.670;6.750;2022-12-07T03:22:04;3.00;99.90
60293;DHT22;52402;52.670;6.750;2022-12-07T03:24:35;3.00;99.90
60293;DHT22;52402;52.670;6.750;2022-12-07T03:27:30;3.00;99.90
60293;DHT22;52402;52.670;6.750;2022-12-07T03:30:00;3.00;99.90
60293;DHT22;52402;52.670;6.750;2022-12-07T03:32:33;3.00;99.90
60293;DHT22;52402;52.670;6.750;2022-12-07T03:35:03;3.00;99.90
60293;DHT22;52402;52.670;6.750;2022-12-07T03:37:39;3.00;99.90
60293;DHT22;52402;52.670;6.750;2022-12-07T03:42:33;2.90;99.90
60293;DHT22;52402;52.670;6.750;2022-12-07T03:45:00;2.90;99.90
60293;DHT22;52402;52.670;6.750;2022-12-07T03:47:44;2.90;99.90
60293;DHT22;52402;52.670;6.750;2022-12-07T03:50:50;2.90;99.90
60293;DHT22;52402;52.670;6.750;2022-12-07T03:53:18;2.80;99.90
60293;DHT22;52402;52.670;6.750;2022-12-07T03:55:46;2.80;99.90
60293;DHT22;52402;52.670;6.750;2022-12-07T03:58:19;2.80;99.90
60293;DHT22;52402;52.670;6.750;2022-12-07T04:00:47;2.80;99.90
60293;DHT22;52402;52.670;6.750;2022-12-07T04:03:13;2.90;99.90
60293;DHT22;52402;52.670;6.750;2022-12-07T04:05:39;2.90;99.90
60293;DHT22;52402;52.670;6.750;2022-12-07T04:08:06;2.90;99.90
60293;DHT22;52402;52.670;6.750;2022-12-07T04:10:31;2.90;99.90
60293;DHT22;52402;52.670;6.750;2022-12-07T04:12:57;2.90;99.90
60293;DHT22;52402;52.670;6.750;2022-12-07T04:15:22;2.90;99.90
60293;DHT22;52402;52.670;6.750;2022-12-07T04:17:48;2.90;99.90
60293;DHT22;52402;52.670;6.750;2022-12-07T04:20:14;2.80;99.90
60293;DHT22;52402;52.670;6.750;2022-12-07T04:22:39;2.80;99.90
60293;DHT22;52402;52.670;6.750;2022-12-07T04:25:05;2.80;99.90
60293;DHT22;52402;52.670;6.750;2022-12-07T04:27:31;2.70;99.90
60293;DHT22;52402;52.670;6.750;2022-12-07T04:29:56;2.70;99.90
60293;DHT22;52402;52.670;6.750;2022-12-07T04:32:23;2.60;99.90
60293;DHT22;52402;52.670;6.750;2022-12-07T04:34:49;2.60;99.90
60293;DHT22;52402;52.670;6.750;2022-12-07T04:37:15;2.60;99.90
60293;DHT22;52402;52.670;6.750;2022-12-07T04:39:40;2.60;99.90
60293;DHT22;52402;52.670;6.750;2022-12-07T04:42:06;2.60;99.90
60293;DHT22;52402;52.670;6.750;2022-12-07T04:44:32;2.50;99.90
60293;DHT22;52402;52.670;6.750;2022-12-07T04:46:58;2.50;99.90
60293;DHT22;52402;52.670;6.750;2022-12-07T04:49:24;2.40;99.90
60293;DHT22;52402;52.670;6.750;2022-12-07T04:51:50;2.30;99.90
60293;DHT22;52402;52.670;6.750;2022-12-07T04:54:16;2.30;99.90
60293;DHT22;52402;52.670;6.750;2022-12-07T04:56:43;2.30;99.90
60293;DHT22;52402;52.670;6.750;2022-12-07T04:59:11;2.30;99.90
60293;DHT22;52402;52.670;6.750;2022-12-07T05:01:37;2.30;99.90
60293;DHT22;52402;52.670;6.750;2022-12-07T05:04:03;2.30;99.90
60293;DHT22;52402;52.670;6.750;2022-12-07T05:06:28;2.40;99.90
60293;DHT22;52402;52.670;6.750;2022-12-07T05:08:54;2.40;99.90
60293;DHT22;52402;52.670;6.750;2022-12-07T05:11:19;2.40;99.90
60293;DHT22;52402;52.670;6.750;2022-12-07T05:14:07;2.40;99.90
60293;DHT22;52402;52.670;6.750;2022-12-07T05:16:32;2.50;99.90
60293;DHT22;52402;52.670;6.750;2022-12-07T05:18:58;2.40;99.90
60293;DHT22;52402;52.670;6.750;2022-12-07T05:21:24;2.40;99.90
60293;DHT22;52402;52.670;6.750;2022-12-07T05:23:50;2.50;99.90
60293;DHT22;52402;52.670;6.750;2022-12-07T05:26:16;2.50;99.90
60293;DHT22;52402;52.670;6.750;2022-12-07T05:28:41;2.50;99.90
60293;DHT22;52402;52.670;6.750;2022-12-07T05:31:07;2.50;99.90
60293;DHT22;52402;52.670;6.750;2022-12-07T05:33:32;2.50;99.90
60293;DHT22;52402;52.670;6.750;2022-12-07T05:35:58;2.50;99.90
60293;DHT22;52402;52.670;6.750;2022-12-07T05:38:24;2.50;99.90
60293;DHT22;52402;52.670;6.750;2022-12-07T05:40:50;2.50;99.90
60293;DHT22;52402;52.670;6.750;2022-12-07T05:43:16;2.50;99.90
60293;DHT22;52402;52.670;6.750;2022-12-07T05:45:41;2.50;99.90
60293;DHT22;52402;52.670;6.750;2022-12-07T05:48:07;2.40;99.90
60293;DHT22;52402;52.670;6.750;2022-12-07T05:50:33;2.40;99.90
60293;DHT22;52402;52.670;6.750;2022-12-07T05:52:58;2.40;99.90
60293;DHT22;52402;52.670;6.750;2022-12-07T05:55:24;2.40;99.90
60293;DHT22;52402;52.670;6.750;2022-12-07T05:57:49;2.30;99.90
60293;DHT22;52402;52.670;6.750;2022-12-07T06:00:34;2.30;99.90
60293;DHT22;52402;52.670;6.750;2022-12-07T06:03:00;2.30;99.90
60293;DHT22;52402;52.670;6.750;2022-12-07T06:05:25;2.30;99.90
60293;DHT22;52402;52.670;6.750;2022-12-07T06:07:51;2.30;99.90
60293;DHT22;52402;52.670;6.750;2022-12-07T06:10:17;2.30;99.90
60293;DHT22;52402;52.670;6.750;2022-12-07T06:12:42;2.20;99.90
60293;DHT22;52402;52.670;6.750;2022-12-07T06:15:11;2.30;99.90
60293;DHT22;52402;52.670;6.750;2022-12-07T06:17:38;2.30;99.90
60293;DHT22;52402;52.670;6.750;2022-12-07T06:20:05;2.30;99.90
60293;DHT22;52402;52.670;6.750;2022-12-07T06:22:30;2.30;99.90
60293;DHT22;52402;52.670;6.750;2022-12-07T06:24:56;2.30;99.90
60293;DHT22;52402;52.670;6.750;2022-12-07T06:27:22;2.30;99.90
60293;DHT22;52402;52.670;6.750;2022-12-07T06:29:47;2.30;99.90
60293;DHT22;52402;52.670;6.750;2022-12-07T06:32:13;2.30;99.90
60293;DHT22;52402;52.670;6.750;2022-12-07T06:34:38;2.20;99.90
60293;DHT22;52402;52.670;6.750;2022-12-07T06:37:04;2.30;99.90
60293;DHT22;52402;52.670;6.750;2022-12-07T06:39:30;2.20;99.90
60293;DHT22;52402;52.670;6.750;2022-12-07T06:41:56;2.20;99.90
60293;DHT22;52402;52.670;6.750;2022-12-07T06:44:23;2.20;99.90
60293;DHT22;52402;52.670;6.750;2022-12-07T06:46:50;2.20;99.90
60293;DHT22;52402;52.670;6.750;2022-12-07T06:49:16;2.20;99.90
60293;DHT22;52402;52.670;6.750;2022-12-07T06:51:43;2.20;99.90
60293;DHT22;52402;52.670;6.750;2022-12-07T06:54:09;2.20;99.90
60293;DHT22;52402;52.670;6.750;2022-12-07T06:56:35;2.30;99.90
60293;DHT22;52402;52.670;6.750;2022-12-07T06:59:01;2.40;99.90
60293;DHT22;52402;52.670;6.750;2022-12-07T07:01:28;2.40;99.90
60293;DHT22;52402;52.670;6.750;2022-12-07T07:03:54;2.40;99.90
60293;DHT22;52402;52.670;6.750;2022-12-07T07:06:20;2.40;99.90
60293;DHT22;52402;52.670;6.750;2022-12-07T07:08:47;2.50;99.90
60293;DHT22;52402;52.670;6.750;2022-12-07T07:11:16;2.50;99.90
60293;DHT22;52402;52.670;6.750;2022-12-07T07:13:41;2.50;99.90
60293;DHT22;52402;52.670;6.750;2022-12-07T07:16:07;2.50;99.90
60293;DHT22;52402;52.670;6.750;2022-12-07T07:18:33;2.50;99.90
60293;DHT22;52402;52.670;6.750;2022-12-07T07:20:58;2.50;99.90
60293;DHT22;52402;52.670;6.750;2022-12-07T07:23:24;2.50;99.90
60293;DHT22;52402;52.670;6.750;2022-12-07T07:25:50;2.40;99.90
60293;DHT22;52402;52.670;6.750;2022-12-07T07:28:16;2.40;99.90
60293;DHT22;52402;52.670;6.750;2022-12-07T07:30:42;2.50;99.90
60293;DHT22;52402;52.670;6.750;2022-12-07T07:33:09;2.50;99.90
60293;DHT22;52402;52.670;6.750;2022-12-07T07:35:35;2.50;99.90
60293;DHT22;52402;52.670;6.750;2022-12-07T07:38:01;2.50;99.90
60293;DHT22;52402;52.670;6.750;2022-12-07T07:40:27;2.60;99.90
60293;DHT22;52402;52.670;6.750;2022-12-07T07:42:57;2.60;99.90
60293;DHT22;52402;52.670;6.750;2022-12-07T07:45:24;2.70;99.90
60293;DHT22;52402;52.670;6.750;2022-12-07T07:47:50;2.70;99.90
60293;DHT22;52402;52.670;6.750;2022-12-07T07:50:16;2.80;99.90
60293;DHT22;52402;52.670;6.750;2022-12-07T07:52:42;2.80;99.90
60293;DHT22;52402;52.670;6.750;2022-12-07T07:55:08;2.80;99.90
60293;DHT22;52402;52.670;6.750;2022-12-07T07:57:35;2.80;99.90
60293;DHT22;52402;52.670;6.750;2022-12-07T08:00:01;2.80;99.90
60293;DHT22;52402;52.670;6.750;2022-12-07T08:02:27;2.90;99.90
60293;DHT22;52402;52.670;6.750;2022-12-07T08:04:55;2.90;99.90
60293;DHT22;52402;52.670;6.750;2022-12-07T08:07:21;2.80;99.90
60293;DHT22;52402;52.670;6.750;2022-12-07T08:09:46;2.80;99.90
60293;DHT22;52402;52.670;6.750;2022-12-07T08:12:12;2.80;99.90
60293;DHT22;52402;52.670;6.750;2022-12-07T08:14:38;2.80;99.90
60293;DHT22;52402;52.670;6.750;2022-12-07T08:17:03;2.80;99.90
60293;DHT22;52402;52.670;6.750;2022-12-07T08:19:29;2.90;99.90
60293;DHT22;52402;52.670;6.750;2022-12-07T08:21:55;2.90;99.90
60293;DHT22;52402;52.670;6.750;2022-12-07T08:24:22;3.00;99.90
60293;DHT22;52402;52.670;6.750;2022-12-07T08:26:48;3.00;99.90
60293;DHT22;52402;52.670;6.750;2022-12-07T08:29:15;3.00;99.90
60293;DHT22;52402;52.670;6.750;2022-12-07T08:31:41;3.10;99.90
60293;DHT22;52402;52.670;6.750;2022-12-07T08:34:06;3.10;99.90
60293;DHT22;52402;52.670;6.750;2022-12-07T08:36:32;3.20;99.90
60293;DHT22;52402;52.670;6.750;2022-12-07T08:38:57;3.20;99.90
60293;DHT22;52402;52.670;6.750;2022-12-07T08:41:23;3.20;99.90
60293;DHT22;52402;52.670;6.750;2022-12-07T08:43:49;3.20;99.90
60293;DHT22;52402;52.670;6.750;2022-12-07T08:49:16;3.30;99.90
60293;DHT22;52402;52.670;6.750;2022-12-07T08:51:44;3.30;99.90
60293;DHT22;52402;52.670;6.750;2022-12-07T08:54:12;3.20;99.90
60293;DHT22;52402;52.670;6.750;2022-12-07T08:56:39;3.30;99.90
60293;DHT22;52402;52.670;6.750;2022-12-07T08:59:06;3.20;99.90
60293;DHT22;52402;52.670;6.750;2022-12-07T09:01:32;3.20;99.90
60293;DHT22;52402;52.670;6.750;2022-12-07T09:03:58;3.20;99.90
60293;DHT22;52402;52.670;6.750;2022-12-07T09:06:24;3.20;99.90
60293;DHT22;52402;52.670;6.750;2022-12-07T09:08:52;3.20;99.90
60293;DHT22;52402;52.670;6.750;2022-12-07T09:11:19;3.20;99.90
60293;DHT22;52402;52.670;6.750;2022-12-07T09:13:45;3.20;99.90
60293;DHT22;52402;52.670;6.750;2022-12-07T09:16:10;3.30;99.90
60293;DHT22;52402;52.670;6.750;2022-12-07T09:18:36;3.30;99.90
60293;DHT22;52402;52.670;6.750;2022-12-07T09:21:03;3.40;99.90
60293;DHT22;52402;52.670;6.750;2022-12-07T09:23:29;3.50;99.90
60293;DHT22;52402;52.670;6.750;2022-12-07T09:25:58;3.60;99.90
60293;DHT22;52402;52.670;6.750;2022-12-07T09:28:24;3.60;99.90
60293;DHT22;52402;52.670;6.750;2022-12-07T09:30:49;3.60;99.90
60293;DHT22;52402;52.670;6.750;2022-12-07T09:33:15;3.60;99.90
60293;DHT22;52402;52.670;6.750;2022-12-07T09:35:48;3.70;99.90
60293;DHT22;52402;52.670;6.750;2022-12-07T09:38:15;3.80;99.90
60293;DHT22;52402;52.670;6.750;2022-12-07T09:40:41;3.80;99.90
60293;DHT22;52402;52.670;6.750;2022-12-07T09:43:20;3.80;99.90
60293;DHT22;52402;52.670;6.750;2022-12-07T09:45:48;3.80;99.90
60293;DHT22;52402;52.670;6.750;2022-12-07T09:48:21;3.80;99.90
60293;DHT22;52402;52.670;6.750;2022-12-07T09:50:49;3.90;99.90
60293;DHT22;52402;52.670;6.750;2022-12-07T09:53:32;3.90;99.90
60293;DHT22;52402;52.670;6.750;2022-12-07T09:55:59;4.00;99.90
60293;DHT22;52402;52.670;6.750;2022-12-07T09:58:28;4.00;99.90
60293;DHT22;52402;52.670;6.750;2022-12-07T10:01:00;4.00;99.90
60293;DHT22;52402;52.670;6.750;2022-12-07T10:03:27;4.00;99.90
60293;DHT22;52402;52.670;6.750;2022-12-07T10:05:54;4.00;99.90
60293;DHT22;52402;52.670;6.750;2022-12-07T10:08:20;4.10;99.90
60293;DHT22;52402;52.670;6.750;2022-12-07T10:10:50;4.10;99.90
60293;DHT22;52402;52.670;6.750;2022-12-07T10:13:20;4.20;99.90
60293;DHT22;52402;52.670;6.750;2022-12-07T10:15:54;4.30;99.90
60293;DHT22;52402;52.670;6.750;2022-12-07T10:18:38;4.40;99.90
60293;DHT22;52402;52.670;6.750;2022-12-07T10:21:14;4.60;99.90
60293;DHT22;52402;52.670;6.750;2022-12-07T10:26:38;4.90;99.90
60293;DHT22;52402;52.670;6.750;2022-12-07T10:29:23;5.00;99.90
60293;DHT22;52402;52.670;6.750;2022-12-07T10:32:03;5.00;99.90
60293;DHT22;52402;52.670;6.750;2022-12-07T10:34:35;5.20;99.90
60293;DHT22;52402;52.670;6.750;2022-12-07T10:42:27;5.30;99.90
60293;DHT22;52402;52.670;6.750;2022-12-07T10:45:26;5.30;99.90
60293;DHT22;52402;52.670;6.750;2022-12-07T10:50:35;5.30;99.90
60293;DHT22;52402;52.670;6.750;2022-12-07T11:01:45;5.30;99.90
60293;DHT22;52402;52.670;6.750;2022-12-07T11:12:32;5.50;99.90
60293;DHT22;52402;52.670;6.750;2022-12-07T11:18:14;5.60;99.90
60293;DHT22;52402;52.670;6.750;2022-12-07T11:20:56;5.80;99.90
60293;DHT22;52402;52.670;6.750;2022-12-07T11:26:33;6.00;99.90
60293;DHT22;52402;52.670;6.750;2022-12-07T11:31:41;6.00;99.90
60293;DHT22;52402;52.670;6.750;2022-12-07T11:36:52;6.10;99.90
60293;DHT22;52402;52.670;6.750;2022-12-07T11:41:52;6.00;99.90
60293;DHT22;52402;52.670;6.750;2022-12-07T11:44:46;6.00;99.90
60293;DHT22;52402;52.670;6.750;2022-12-07T11:47:34;6.00;99.90
60293;DHT22;52402;52.670;6.750;2022-12-07T11:50:21;5.90;99.90
60293;DHT22;52402;52.670;6.750;2022-12-07T11:52:53;5.90;99.90
60293;DHT22;52402;52.670;6.750;2022-12-07T12:03:44;5.90;99.90
60293;DHT22;52402;52.670;6.750;2022-12-07T12:06:11;5.90;99.90
60293;DHT22;52402;52.670;6.750;2022-12-07T12:08:42;5.80;99.90
60293;DHT22;52402;52.670;6.750;2022-12-07T12:11:44;5.90;99.90
60293;DHT22;52402;52.670;6.750;2022-12-07T12:25:04;6.10;99.90
60293;DHT22;52402;52.670;6.750;2022-12-07T12:27:36;6.10;99.90
60293;DHT22;52402;52.670;6.750;2022-12-07T12:30:05;6.20;99.90
60293;DHT22;52402;52.670;6.750;2022-12-07T12:32:50;6.20;99.90
60293;DHT22;52402;52.670;6.750;2022-12-07T12:35:34;6.20;99.90
60293;DHT22;52402;52.670;6.750;2022-12-07T12:38:21;6.20;99.90
60293;DHT22;52402;52.670;6.750;2022-12-07T12:40:49;6.20;99.90
60293;DHT22;52402;52.670;6.750;2022-12-07T12:51:53;6.10;99.90
60293;DHT22;52402;52.670;6.750;2022-12-07T13:02:37;6.20;99.90
60293;DHT22;52402;52.670;6.750;2022-12-07T13:15:49;6.20;99.90
60293;DHT22;52402;52.670;6.750;2022-12-07T13:37:02;6.10;99.90
60293;DHT22;52402;52.670;6.750;2022-12-07T13:39:32;6.10;99.90
60293;DHT22;52402;52.670;6.750;2022-12-07T13:41:58;6.10;99.90
60293;DHT22;52402;52.670;6.750;2022-12-07T13:44:28;6.20;99.90
60293;DHT22;52402;52.670;6.750;2022-12-07T13:47:12;6.20;99.90
60293;DHT22;52402;52.670;6.750;2022-12-07T13:49:52;6.20;99.90
60293;DHT22;52402;52.670;6.750;2022-12-07T13:52:30;6.30;99.90
60293;DHT22;52402;52.670;6.750;2022-12-07T13:54:58;6.30;99.90
60293;DHT22;52402;52.670;6.750;2022-12-07T13:57:25;6.20;99.90
60293;DHT22;52402;52.670;6.750;2022-12-07T13:59:52;6.20;99.90
60293;DHT22;52402;52.670;6.750;2022-12-07T14:02:20;6.20;99.90
60293;DHT22;52402;52.670;6.750;2022-12-07T14:04:49;6.20;99.90
60293;DHT22;52402;52.670;6.750;2022-12-07T14:07:20;6.10;99.90
60293;DHT22;52402;52.670;6.750;2022-12-07T14:09:56;5.90;99.90
60293;DHT22;52402;52.670;6.750;2022-12-07T14:12:22;5.70;99.90
60293;DHT22;52402;52.670;6.750;2022-12-07T14:14:48;5.50;99.90
60293;DHT22;52402;52.670;6.750;2022-12-07T14:17:19;5.20;99.90
60293;DHT22;52402;52.670;6.750;2022-12-07T14:24:50;4.70;99.90
60293;DHT22;52402;52.670;6.750;2022-12-07T14:27:18;4.50;99.90
60293;DHT22;52402;52.670;6.750;2022-12-07T14:29:43;4.50;99.90
60293;DHT22;52402;52.670;6.750;2022-12-07T14:32:21;4.50;99.90
60293;DHT22;52402;52.670;6.750;2022-12-07T14:34:58;4.50;99.90
60293;DHT22;52402;52.670;6.750;2022-12-07T14:37:24;4.50;99.90
60293;DHT22;52402;52.670;6.750;2022-12-07T14:39:50;4.40;99.90
60293;DHT22;52402;52.670;6.750;2022-12-07T14:42:16;4.40;99.90
60293;DHT22;52402;52.670;6.750;2022-12-07T14:44:42;4.50;99.90
60293;DHT22;52402;52.670;6.750;2022-12-07T14:47:11;4.40;99.90
60293;DHT22;52402;52.670;6.750;2022-12-07T14:49:37;4.50;99.90
60293;DHT22;52402;52.670;6.750;2022-12-07T14:52:03;4.40;99.90
60293;DHT22;52402;52.670;6.750;2022-12-07T14:54:31;4.40;99.90
60293;DHT22;52402;52.670;6.750;2022-12-07T14:56:58;4.40;99.90
60293;DHT22;52402;52.670;6.750;2022-12-07T14:59:23;4.40;99.90
60293;DHT22;52402;52.670;6.750;2022-12-07T15:01:49;4.40;99.90
60293;DHT22;52402;52.670;6.750;2022-12-07T15:04:15;4.30;99.90
60293;DHT22;52402;52.670;6.750;2022-12-07T15:06:41;4.30;99.90
60293;DHT22;52402;52.670;6.750;2022-12-07T15:09:10;4.40;99.90
60293;DHT22;52402;52.670;6.750;2022-12-07T15:11:36;4.30;99.90
60293;DHT22;52402;52.670;6.750;2022-12-07T15:14:02;4.30;99.90
60293;DHT22;52402;52.670;6.750;2022-12-07T15:16:41;4.30;99.90
60293;DHT22;52402;52.670;6.750;2022-12-07T15:19:16;4.30;99.90
60293;DHT22;52402;52.670;6.750;2022-12-07T15:21:42;4.40;99.90
60293;DHT22;52402;52.670;6.750;2022-12-07T15:24:10;4.40;99.90
60293;DHT22;52402;52.670;6.750;2022-12-07T15:26:36;4.30;99.90
60293;DHT22;52402;52.670;6.750;2022-12-07T15:29:03;4.30;99.90
60293;DHT22;52402;52.670;6.750;2022-12-07T15:31:29;4.40;99.90
60293;DHT22;52402;52.670;6.750;2022-12-07T15:33:54;4.30;99.90
60293;DHT22;52402;52.670;6.750;2022-12-07T15:36:23;4.30;99.90
60293;DHT22;52402;52.670;6.750;2022-12-07T15:38:49;4.30;99.90
60293;DHT22;52402;52.670;6.750;2022-12-07T15:41:15;4.40;99.90
60293;DHT22;52402;52.670;6.750;2022-12-07T15:43:40;4.40;99.90
60293;DHT22;52402;52.670;6.750;2022-12-07T15:46:30;4.30;99.90
60293;DHT22;52402;52.670;6.750;2022-12-07T15:48:56;4.40;99.90
60293;DHT22;52402;52.670;6.750;2022-12-07T15:51:21;4.30;99.90
60293;DHT22;52402;52.670;6.750;2022-12-07T15:53:47;4.30;99.90
60293;DHT22;52402;52.670;6.750;2022-12-07T15:56:13;4.40;99.90
60293;DHT22;52402;52.670;6.750;2022-12-07T15:58:38;4.30;99.90
60293;DHT22;52402;52.670;6.750;2022-12-07T16:01:15;4.30;99.90
60293;DHT22;52402;52.670;6.750;2022-12-07T16:03:41;4.30;99.90
60293;DHT22;52402;52.670;6.750;2022-12-07T16:06:07;4.30;99.90
60293;DHT22;52402;52.670;6.750;2022-12-07T16:08:32;4.30;99.90
60293;DHT22;52402;52.670;6.750;2022-12-07T16:10:58;4.30;99.90
60293;DHT22;52402;52.670;6.750;2022-12-07T16:13:24;4.20;99.90
60293;DHT22;52402;52.670;6.750;2022-12-07T16:15:49;4.30;99.90
60293;DHT22;52402;52.670;6.750;2022-12-07T16:18:15;4.20;99.90
60293;DHT22;52402;52.670;6.750;2022-12-07T16:20:41;4.20;99.90
60293;DHT22;52402;52.670;6.750;2022-12-07T16:23:06;4.20;99.90
60293;DHT22;52402;52.670;6.750;2022-12-07T16:25:33;4.20;99.90
60293;DHT22;52402;52.670;6.750;2022-12-07T16:27:58;4.10;99.90
60293;DHT22;52402;52.670;6.750;2022-12-07T16:30:24;4.10;99.90
60293;DHT22;52402;52.670;6.750;2022-12-07T16:32:51;4.00;99.90
60293;DHT22;52402;52.670;6.750;2022-12-07T16:35:16;4.00;99.90
60293;DHT22;52402;52.670;6.750;2022-12-07T16:37:43;4.00;99.90
60293;DHT22;52402;52.670;6.750;2022-12-07T16:40:09;3.90;99.90
60293;DHT22;52402;52.670;6.750;2022-12-07T16:42:36;3.90;99.90
60293;DHT22;52402;52.670;6.750;2022-12-07T16:45:02;3.90;99.90
60293;DHT22;52402;52.670;6.750;2022-12-07T16:47:31;3.80;99.90
60293;DHT22;52402;52.670;6.750;2022-12-07T16:49:56;3.80;99.90
60293;DHT22;52402;52.670;6.750;2022-12-07T16:52:22;3.80;99.90
60293;DHT22;52402;52.670;6.750;2022-12-07T16:54:48;3.90;99.90
60293;DHT22;52402;52.670;6.750;2022-12-07T16:57:15;3.80;99.90
60293;DHT22;52402;52.670;6.750;2022-12-07T16:59:41;3.80;99.90
60293;DHT22;52402;52.670;6.750;2022-12-07T17:02:10;3.80;99.90
60293;DHT22;52402;52.670;6.750;2022-12-07T17:04:36;3.90;99.90
60293;DHT22;52402;52.670;6.750;2022-12-07T17:07:05;3.80;99.90
60293;DHT22;52402;52.670;6.750;2022-12-07T17:09:31;3.90;99.90
60293;DHT22;52402;52.670;6.750;2022-12-07T17:11:57;3.90;99.90
60293;DHT22;52402;52.670;6.750;2022-12-07T17:14:22;3.90;99.90
60293;DHT22;52402;52.670;6.750;2022-12-07T17:17:07;3.90;99.90
60293;DHT22;52402;52.670;6.750;2022-12-07T17:19:33;3.90;99.90
60293;DHT22;52402;52.670;6.750;2022-12-07T17:21:58;3.90;99.90
60293;DHT22;52402;52.670;6.750;2022-12-07T17:24:24;3.80;99.90
60293;DHT22;52402;52.670;6.750;2022-12-07T17:26:49;3.80;99.90
60293;DHT22;52402;52.670;6.750;2022-12-07T17:29:17;3.80;99.90
60293;DHT22;52402;52.670;6.750;2022-12-07T17:31:43;3.80;99.90
60293;DHT22;52402;52.670;6.750;2022-12-07T17:34:13;3.80;99.90
60293;DHT22;52402;52.670;6.750;2022-12-07T17:36:39;3.80;99.90
60293;DHT22;52402;52.670;6.750;2022-12-07T17:39:09;3.80;99.90
60293;DHT22;52402;52.670;6.750;2022-12-07T17:41:36;3.80;99.90
60293;DHT22;52402;52.670;6.750;2022-12-07T17:44:20;3.80;99.90
60293;DHT22;52402;52.670;6.750;2022-12-07T17:46:49;3.80;99.90
60293;DHT22;52402;52.670;6.750;2022-12-07T17:49:20;3.70;99.90
60293;DHT22;52402;52.670;6.750;2022-12-07T17:51:45;3.70;99.90
60293;DHT22;52402;52.670;6.750;2022-12-07T17:54:30;3.70;99.90
60293;DHT22;52402;52.670;6.750;2022-12-07T17:56:56;3.70;99.90
60293;DHT22;52402;52.670;6.750;2022-12-07T17:59:22;3.60;99.90
60293;DHT22;52402;52.670;6.750;2022-12-07T18:01:47;3.60;99.90
60293;DHT22;52402;52.670;6.750;2022-12-07T18:04:13;3.60;99.90
60293;DHT22;52402;52.670;6.750;2022-12-07T18:06:39;3.60;99.90
60293;DHT22;52402;52.670;6.750;2022-12-07T18:09:06;3.60;99.90
60293;DHT22;52402;52.670;6.750;2022-12-07T18:11:32;3.60;99.90
60293;DHT22;52402;52.670;6.750;2022-12-07T18:13:58;3.60;99.90